Boulder City, Nevada Weather observations

Data are for observation ending at time listed.
 Day   Time    Ave.   Ave.  Ave.  Vector   Max.   Stn.    Total    Solar   Ave.  
  of    of     Air    Rel.  Wind   Wind    Wind   Baro.  Precip.   Rad.    Soil  
Year   Day     Temp.  Hum.  Speed  Dir.    Gust   Pres.                    Temp. 
2026   (PST)    F      %     mph   deg.    mph     mb.     in.     W/m2     F   
------------------------------------------------------------------------------
 127   15:40   90.7     8    3.4    17      7.3   929.2    0.00     497    89.3
 127   15:50   91.0     8    3.5    21      7.5   929.2    0.00     463    89.5
 127   16:00   90.9     9    3.5     7      7.5   929.1    0.00     430    89.5
 127   16:10   91.4     8    3.1    19      8.9   929.0    0.00     397    89.6
 127   16:20   91.1     8    2.4    11      5.3   929.0    0.00     362    89.8
 127   16:30   91.5     8    3.1    42      6.6   928.9    0.00     329    89.8
 127   16:40   90.6     8    3.0    36      6.1   929.0    0.00     295    89.9
 127   16:50   90.5     9    3.2    10      5.8   928.9    0.00     263    89.9
 127   17:00   90.6     9    2.9    34      6.2   928.8    0.00     230    90.0
 127   17:10   90.2     9    2.4    12      5.0   928.6    0.00     199    90.0
 127   17:20   89.0     9    3.5     9      7.4   928.4    0.00     168    90.0
 127   17:30   88.5     9    3.5     3      7.8   928.3    0.00     140    89.9
 127   17:40   88.2     9    3.4   349      5.3   928.2    0.00     112    89.9
 127   17:50   87.7    10    1.8     2      3.5   928.1    0.00      67    89.9
 127   18:00   87.4     9    1.1   360      2.3   928.0    0.00      23    89.9
 127   18:10   86.7    10    1.9   333      2.9   927.9    0.00      18    89.9
 127   18:20   85.9    10    0.7   321      1.9   927.8    0.00      13    89.8
 127   18:30   85.2    10    1.1   281      2.0   927.8    0.00       8    89.8
 127   18:40   84.4    10    1.5   208      3.1   927.8    0.00       3    89.7
 127   18:50   84.1    10    2.0   217      2.9   927.8    0.00       1    89.7
 127   19:00   84.1    10    1.1   255      3.1   927.8    0.00       0    89.6
 127   19:10   84.2    10    2.1   252      3.4   927.8    0.00       0    89.5
 127   19:20   83.8    10    1.3   262      3.1   927.9    0.00       0    89.5
 127   19:30   83.1    10    2.2   223      3.3   928.0    0.00       0    89.3
 127   19:40   81.9    11    1.7   206      2.6   928.0    0.00       0    89.2
 127   19:50   82.4    11    2.0   226      2.9   928.0    0.00       0    89.1
 127   20:00   82.9    10    2.8   246      4.8   928.1    0.00       0    89.0
 127   20:10   83.3    10    3.0   240      4.2   928.1    0.00       0    88.9
 127   20:20   83.0    10    2.5   221      4.4   928.2    0.00       0    88.8
 127   20:30   82.6    10    2.8   210      4.7   928.2    0.00       0    88.6
 127   20:40   82.4    10    3.6   192      7.5   928.3    0.00       0    88.5
 127   20:50   81.6    11    3.2   208      4.4   928.3    0.00       0    88.4
 127   21:00   80.5    11    3.7   211      5.0   928.3    0.00       0    88.2
 127   21:10   80.0    11    3.3   197      4.7   928.3    0.00       0    88.1
 127   21:20   79.1    12    3.5   195      5.3   928.3    0.00       0    88.0
 127   21:30   78.7    12    3.1   197      4.9   928.2    0.00       0    87.9
 127   21:40   78.7    12    3.1   211      4.2   928.1    0.00       0    87.7
 127   21:50   79.9    11    3.7   230      6.4   928.1    0.00       0    87.6
 127   22:00   81.1    10    4.7   236      7.2   928.1    0.00       0    87.4
 127   22:10   81.3    10    5.0   240      7.3   928.0    0.00       0    87.3
 127   22:20   81.4    10    5.3   240      7.5   928.1    0.00       0    87.2
 127   22:30   81.3    10    5.0   233      8.2   928.2    0.00       0    87.0
 127   22:40   81.2    10    5.2   235      8.0   928.2    0.00       0    86.8
 127   22:50   81.5    10    5.7   236      9.0   928.2    0.00       0    86.7
 127   23:00   81.5    10    5.5   234      8.5   928.1    0.00       0    86.6
 127   23:10   81.2    10    5.6   236      8.1   928.2    0.00       0    86.4
 127   23:20   81.0    10    5.5   234      7.6   928.1    0.00       0    86.3
 127   23:30   80.8    10    5.1   228      8.3   928.2    0.00       0    86.1
 127   23:40   80.3    10    4.6   220      7.3   928.2    0.00       0    86.0
 127   23:50   79.8    10    4.1   210      6.1   928.2    0.00       0    85.8
 128    0:00   79.2    11    3.6   201      5.6   928.1    0.00       0    85.7
 128    0:10   77.7    11    3.4   199      4.8   928.1    0.00       0    85.6
 128    0:20   77.2    11    3.7   206      5.5   928.0    0.00       0    85.5
 128    0:30   78.3    11    4.9   221      6.6   927.9    0.00       0    85.3
 128    0:40   79.0    11    5.3   218      7.2   927.9    0.00       0    85.2
 128    0:50   78.9    11    5.2   221      7.2   927.9    0.00       0    85.1
 128    1:00   78.9    11    4.9   226      6.8   927.8    0.00       0    84.9
 128    1:10   78.4    11    5.4   222      6.7   927.7    0.00       0    84.8
 128    1:20   78.1    11    5.6   219      7.1   927.7    0.00       0    84.7
 128    1:30   78.1    11    5.4   223      7.5   927.7    0.00       0    84.6
 128    1:40   77.8    11    4.6   229      6.1   927.7    0.00       0    84.4
 128    1:50   77.9    11    4.7   226      6.5   927.8    0.00       0    84.3
 128    2:00   77.4    12    4.5   211      6.6   927.8    0.00       0    84.2
 128    2:10   77.4    12    4.8   224      6.5   927.9    0.00       0    84.1
 128    2:20   78.3    12    5.0   233      7.6   927.9    0.00       0    83.9
 128    2:30   78.5    12    5.1   228      6.9   928.0    0.00       0    83.8
 128    2:40   78.2    12    5.8   224      7.7   927.9    0.00       0    83.7
 128    2:50   78.0    12    5.5   228      8.3   927.9    0.00       0    83.6
 128    3:00   78.6    12    5.2   223      7.5   928.0    0.00       0    83.5
 128    3:10   77.6    12    4.2   226      5.6   928.0    0.00       0    83.4
 128    3:20   76.7    13    5.1   221      6.5   928.0    0.00       0    83.2
 128    3:30   77.2    13    5.5   227      6.9   927.9    0.00       0    83.1
 128    3:40   77.1    13    5.7   224      8.0   927.9    0.00       0    83.0
 128    3:50   77.1    13    4.5   236      5.9   927.9    0.00       0    82.9
 128    4:00   76.9    13    4.8   235      7.2   927.9    0.00       0    82.8
 128    4:10   77.3    13    3.1   245      6.6   928.0    0.00       0    82.7
 128    4:20   76.5    13    2.3   353      6.1   928.1    0.00       0    82.6
 128    4:30   74.6    14    1.3   245      3.1   928.1    0.00       1    82.5
 128    4:40   72.8    14    2.2   223      3.1   928.1    0.00       3    82.4
 128    4:50   71.4    15    2.8   213      3.7   928.1    0.00       7    82.3
 128    5:00   70.3    16    3.1   208      4.2   928.2    0.00      19    82.1
 128    5:10   70.8    17    3.2   224      4.1   928.2    0.00      21    82.0
 128    5:20   72.6    15    2.7   227      3.9   928.3    0.00      26    82.0
 128    5:30   74.5    15    2.1   214      3.2   928.4    0.00      31    81.8
 128    5:40   75.2    15    3.5   209      4.7   928.6    0.00      91    81.7
 128    5:50   76.5    14    3.2   206      4.7   928.8    0.00     185    81.6
 128    6:00   77.7    14    3.4   203      4.9   929.1    0.00     218    81.5
 128    6:10   79.5    13    3.8   179      4.8   929.3    0.00     253    81.4
 128    6:20   81.1    12    1.7   194      4.2   929.6    0.00     288    81.2
 128    6:30   82.8    13    1.8     9      3.4   929.8    0.00     322    81.1
 128    6:40   82.8    13    2.2    15      4.2   930.0    0.00     356    81.0
 128    6:50   83.6    13    1.5    59      3.5   930.2    0.00     391    81.0
 128    7:00   84.6    12    1.9    57      4.4   930.3    0.00     425    80.9
 128    7:10   83.8    12    2.3    52      4.3   930.4    0.00     458    80.8
 128    7:20   84.6    12    1.6   356      3.9   930.5    0.00     492    80.8
 128    7:30   85.8    11    1.8    15      3.1   930.6    0.00     525    80.7
 128    7:40   86.2    11    2.0    60      4.9   930.7    0.00     556    80.7
 128    7:50   86.2    11    2.1    60      4.5   930.7    0.00     587    80.7
 128    8:00   86.6    11    2.3    26      4.7   930.8    0.00     616    80.8
 128    8:10   86.5    11    2.8    60      5.7   930.9    0.00     645    80.8
 128    8:20   87.0    11    2.8    59      5.3   931.0    0.00     673    80.9
 128    8:30   87.6    11    2.6    50      6.0   931.1    0.00     698    81.0
 128    8:40   88.2    11    2.7    15      5.3   931.1    0.00     723    81.1
 128    8:50   88.2    11    2.4    32      5.0   931.2    0.00     748    81.1
 128    9:00   88.5    11    2.7    22      5.8   931.2    0.00     771    81.3
 128    9:10   88.5    11    2.3    25      4.7   931.2    0.00     793    81.4
 128    9:20   90.3    10    1.1    75      3.5   931.2    0.00     789    81.6
 128    9:30   91.0    10    2.8    24      6.6   931.3    0.00     465    81.8
 128    9:40   90.3    10    3.1    15      6.6   931.3    0.00     610    82.0
 128    9:50   90.4    10    2.8    39      7.5   931.2    0.00     770    82.3
 128   10:00   90.7    10    3.3    14      8.8   931.1    0.00     835    82.5
 128   10:10   91.7     9    3.5    25      6.9   931.1    0.00     890    82.7
 128   10:20   92.0     9    3.4    25      7.6   931.1    0.00     896    83.0
 128   10:30   92.1     9    2.6    17      7.1   931.0    0.00     907    83.3
 128   10:40   92.6     9    3.6    39      9.0   930.9    0.00     890    83.6
 128   10:50   93.1     9    3.3    34      7.8   930.8    0.00     896    83.9
 128   11:00   93.2     9    3.1    47      6.9   930.7    0.00     704    84.2
 128   11:10   93.7     9    4.7    68     11.1   930.6    0.00     799    84.5
 128   11:20   94.4     8    4.6    44     11.3   930.5    0.00     886    84.9
 128   11:30   94.1     8    4.0    41      8.5   930.4    0.00     952    85.3
 128   11:40   94.3     8    3.0    88      7.5   930.3    0.00     908    85.6
 128   11:50   95.6     8    6.0    71     12.9   930.2    0.00     950    86.0
 128   12:00   95.4     8    4.8    67     13.2   930.0    0.00     947    86.3
 128   12:10   95.0     8    3.6    12      9.0   930.0    0.00     943    86.7
 128   12:20   95.1     8    5.1    72     12.2   929.8    0.00     937    87.0
 128   12:30   96.2     7    3.6   291     11.2   929.7    0.00     930    87.4
 128   12:40   97.0     7    7.0   292     21.4   929.5    0.00     918    87.8
 128   12:50   95.9     8    5.8    18     11.4   929.4    0.00     906    88.1
 128   13:00   96.7     7    6.2    83     12.1   929.2    0.00     891    88.5
 128   13:10   96.8     7    4.6   126     11.1   929.1    0.00     874    88.8
 128   13:20   97.2     7    4.1    60      8.4   929.0    0.00     853    89.2
 128   13:30   97.1     7    2.8    36      6.4   928.9    0.00     832    89.5
 128   13:40   98.1     7    2.7   155      6.9   928.8    0.00     812    89.9
 128   13:50   97.7     7    2.3    54      8.2   928.9    0.00     791    90.2
 128   14:00   98.7     7    3.1    60      8.1   928.9    0.00     771    90.6
 128   14:10   98.7     7    2.8   218      8.6   928.8    0.00     748    90.9
 128   14:20   99.3     7    6.1   158     12.4   928.6    0.00     726    91.2
 128   14:30   99.2     7    4.4   239     11.4   928.5    0.00     700    91.4
 128   14:40   99.8     6    5.4   127      9.8   928.3    0.00     674    91.6
 128   14:50   99.8     6    3.5   181     10.6   928.2    0.00     649    91.9
 128   15:00   99.8     6    7.7   197     14.8   928.2    0.00     622    92.2
 128   15:10   99.6     6    8.0   179     17.2   928.0    0.00     591    92.4
 128   15:20   99.5     6    9.5   180     17.2   927.8    0.00     561    92.6
 128   15:30   99.2     6   10.1   183     19.6   927.7    0.00     528    92.8

Return to Boulder City, Nevada graphs page.


Western Regional Climate Center,wrcc@dri.edu